Boise, ID (83705)

3:06 PM MST on December 18, 2014 (GMT -0700)
Pier Point | Change Station
CLOSE
Current Station
Personal Weather Station
Location: Boise, ID
Elevation: 2760 ft
Nearby Weather Stations

Elev 2760 ft 43.58 °N, 116.16 °W | Updated 7 minutes ago

Overcast
Overcast
47.2 °F
Feels Like 47 °F
N
1.0
Wind Variable Wind from East
Gusts 3.0 mph

Today
High -- | Low -- °F
--% Chance of Precip.
Yesterday
High -- | Low -- °F
Precip. -- in
8:13 AM 5:09 PM
Waning Crescent, 12% visible
Pressure 30.09 in
Visibility 10.0 miles
Clouds Overcast 7000 ft
Windchill 47 °F
Dew Point 35 °F
Humidity 63%
Rainfall 0.00 in
Snow Depth Not available.
UV 0 out of 12
Pollen .10 out of 12
Air Quality Not available.
Flu Activity Not available.
METAR KBOI 182153Z 16010KT 10SM OVC070 08/00 A3007 RMK AO2 SLP190 T00780000

More Conditions Fewer Conditions

Pressure 30.09 in
Visibility 10.0 miles
Clouds Overcast 7000 ft
Windchill 47 °F
Dew Point 35 °F
Humidity 63%
Rainfall 0.00 in
Snow Depth Not available.
UV 0 out of 12
Pollen .10 out of 12
Air Quality Not available.
Flu Activity Not available.
METAR KBOI 182153Z 16010KT 10SM OVC070 08/00 A3007 RMK AO2 SLP190 T00780000

More Conditions Fewer Conditions

10-Day Weather Forecast

Almanac

Astronomy

Dec. 18, 2014 Rise Set
Actual Time
Civil Twilight
Nautical Twilight
Astronomical Twilight
Moon
Length of Visible Light
Length of Day
Tomorrow will be .
, % of the Moon is Illuminated

Today's Extremes

State Highs State Lows

Community

WunderPhotos

Upload Photos

1,779,006 photos uploaded!

WunderBlogs® & News

Nearby

Air Quality

  Air Quality AQ Index Pollutant
Not available.

Snow Depth

Station Depth Elevation

Earthquake Activity

City Distance Mag. Time & Date
Minimum magnitude displayed is 2.5.

Coastal Water Temperatures

Place Temperature

Nearby Weather Stations